createdAt,value
2018-04-17T00:00:15.119Z,100.00
2018-04-17T00:02:45.970Z,100.00
2018-04-17T00:05:16.827Z,100.00
2018-04-17T00:07:47.664Z,100.00
2018-04-17T00:10:18.513Z,100.00
2018-04-17T00:12:49.405Z,100.00
2018-04-17T00:15:20.295Z,100.00
2018-04-17T00:17:51.151Z,100.00
2018-04-17T00:20:22.096Z,100.00
2018-04-17T00:22:52.956Z,100.00
2018-04-17T00:25:23.823Z,100.00
2018-04-17T00:27:54.706Z,100.00
2018-04-17T00:30:25.543Z,100.00
2018-04-17T00:32:56.392Z,100.00
2018-04-17T00:35:34.209Z,100.00
2018-04-17T00:38:05.049Z,100.00
2018-04-17T00:40:35.947Z,100.00
2018-04-17T00:43:06.789Z,100.00
2018-04-17T00:45:37.628Z,100.00
2018-04-17T00:48:08.451Z,100.00
2018-04-17T00:50:39.318Z,100.00
2018-04-17T00:53:22.512Z,100.00
2018-04-17T00:55:53.432Z,100.00
2018-04-17T00:58:24.295Z,100.00
2018-04-17T01:00:55.209Z,100.00
2018-04-17T01:03:26.147Z,100.00
2018-04-17T01:05:57.126Z,100.00
2018-04-17T01:08:27.998Z,100.00
2018-04-17T01:10:58.863Z,100.00
2018-04-17T01:13:29.790Z,100.00
2018-04-17T01:16:00.689Z,100.00
2018-04-17T01:18:31.545Z,100.00
2018-04-17T01:21:02.418Z,100.00
2018-04-17T01:23:33.274Z,100.00
2018-04-17T01:26:04.176Z,100.00
2018-04-17T01:28:36.058Z,100.00
2018-04-17T01:31:08.014Z,100.00
2018-04-17T01:33:38.887Z,100.00
2018-04-17T01:36:09.824Z,100.00
2018-04-17T01:38:40.672Z,100.00
2018-04-17T01:41:11.555Z,100.00
2018-04-17T01:43:42.403Z,100.00
2018-04-17T01:46:13.381Z,100.00
2018-04-17T01:48:44.231Z,100.00
2018-04-17T01:51:15.097Z,100.00
2018-04-17T01:53:45.948Z,100.00
2018-04-17T01:56:16.852Z,100.00
2018-04-17T01:58:47.678Z,100.00
2018-04-17T02:01:18.535Z,100.00
2018-04-17T02:03:49.384Z,100.00
2018-04-17T02:06:20.249Z,100.00
2018-04-17T02:08:51.100Z,100.00
2018-04-17T02:11:21.943Z,100.00
2018-04-17T02:13:52.783Z,100.00
2018-04-17T02:16:23.705Z,100.00
2018-04-17T02:18:54.557Z,100.00
2018-04-17T02:21:25.429Z,100.00
2018-04-17T02:23:56.294Z,100.00
2018-04-17T02:26:27.183Z,100.00
2018-04-17T02:28:58.072Z,100.00
2018-04-17T02:31:28.921Z,100.00
2018-04-17T02:33:59.758Z,100.00
2018-04-17T02:36:30.652Z,100.00
2018-04-17T02:39:01.509Z,100.00
2018-04-17T02:41:32.371Z,100.00
2018-04-17T02:44:03.219Z,100.00
2018-04-17T02:46:34.110Z,100.00
2018-04-17T02:49:05.020Z,100.00
2018-04-17T02:51:35.865Z,100.00
2018-04-17T02:54:06.706Z,100.00
2018-04-17T02:56:37.559Z,100.00
2018-04-17T02:59:08.416Z,100.00
2018-04-17T03:01:39.263Z,100.00
2018-04-17T03:04:10.105Z,100.00
2018-04-17T03:06:40.956Z,100.00
2018-04-17T03:09:11.809Z,100.00
2018-04-17T03:11:42.655Z,100.00
2018-04-17T03:14:13.513Z,100.00
2018-04-17T03:16:44.474Z,100.00
2018-04-17T03:19:15.368Z,100.00
2018-04-17T03:21:46.228Z,100.00
2018-04-17T03:24:17.144Z,100.00
2018-04-17T03:26:48.046Z,100.00
2018-04-17T03:29:18.894Z,100.00
2018-04-17T03:31:49.773Z,100.00
2018-04-17T03:34:20.643Z,100.00
2018-04-17T03:36:51.503Z,100.00
2018-04-17T03:39:23.155Z,100.00
2018-04-17T03:41:54.071Z,100.00
2018-04-17T03:44:24.909Z,100.00
2018-04-17T03:46:55.763Z,100.00
2018-04-17T03:49:26.603Z,100.00
2018-04-17T03:51:57.447Z,100.00
2018-04-17T03:54:28.282Z,100.00
2018-04-17T03:56:59.226Z,100.00
2018-04-17T03:59:30.079Z,100.00
2018-04-17T04:02:00.943Z,100.00
2018-04-17T04:04:31.784Z,100.00
2018-04-17T04:07:02.659Z,100.00
2018-04-17T04:09:33.535Z,100.00
2018-04-17T04:12:04.395Z,100.00
2018-04-17T04:14:35.268Z,100.00
2018-04-17T04:17:18.476Z,100.00
2018-04-17T04:20:01.692Z,100.00
2018-04-17T04:22:44.886Z,100.00
2018-04-17T04:25:20.687Z,100.00
2018-04-17T04:27:51.548Z,100.00
2018-04-17T04:30:29.360Z,100.00
2018-04-17T04:33:00.193Z,100.00
2018-04-17T04:35:31.060Z,100.00
2018-04-17T04:38:01.928Z,100.00
2018-04-17T04:40:32.793Z,100.00
2018-04-17T04:43:03.651Z,100.00
2018-04-17T04:45:34.499Z,100.00
2018-04-17T04:48:05.356Z,100.00
2018-04-17T04:50:36.195Z,100.00
2018-04-17T04:53:07.120Z,100.00
2018-04-17T04:55:37.962Z,100.00
2018-04-17T04:58:08.844Z,100.00
2018-04-17T05:00:39.675Z,100.00
2018-04-17T05:03:10.519Z,100.00
2018-04-17T05:05:41.360Z,100.00
2018-04-17T05:08:12.263Z,100.00
2018-04-17T05:10:43.100Z,100.00
2018-04-17T05:13:13.956Z,100.00
2018-04-17T05:15:44.803Z,100.00
2018-04-17T05:18:16.192Z,100.00
2018-04-17T05:20:47.072Z,100.00
2018-04-17T05:23:17.992Z,100.00
2018-04-17T05:25:48.839Z,100.00
2018-04-17T05:28:19.717Z,100.00
2018-04-17T05:30:50.568Z,100.00
2018-04-17T05:33:21.470Z,100.00
2018-04-17T05:35:52.412Z,100.00
2018-04-17T05:38:23.286Z,100.00
2018-04-17T05:40:54.136Z,100.00
2018-04-17T05:43:24.987Z,100.00
2018-04-17T05:45:55.799Z,100.00
2018-04-17T05:48:26.651Z,100.00
2018-04-17T05:50:57.487Z,100.00
2018-04-17T05:53:28.338Z,100.00
2018-04-17T05:55:59.209Z,100.00
2018-04-17T05:58:29.966Z,100.00
2018-04-17T06:01:00.935Z,100.00
2018-04-17T06:03:31.788Z,100.00
2018-04-17T06:06:02.699Z,100.00
2018-04-17T06:08:33.512Z,100.00
2018-04-17T06:11:04.312Z,100.00
2018-04-17T06:13:35.120Z,100.00
2018-04-17T06:16:05.900Z,100.00
2018-04-17T06:18:36.719Z,100.00
2018-04-17T06:21:07.508Z,100.00
2018-04-17T06:23:38.315Z,100.00
2018-04-17T06:26:09.192Z,100.00
2018-04-17T06:28:39.942Z,100.00
2018-04-17T06:31:10.746Z,100.00
2018-04-17T06:33:41.577Z,100.00
2018-04-17T06:36:12.358Z,100.00
2018-04-17T06:38:43.168Z,100.00
2018-04-17T06:41:13.940Z,100.00
2018-04-17T06:43:44.793Z,99.46
2018-04-17T06:46:15.598Z,99.01
2018-04-17T06:48:46.402Z,98.19
2018-04-17T06:51:17.272Z,97.90
2018-04-17T06:53:48.089Z,97.18
2018-04-17T06:56:18.878Z,96.60
2018-04-17T06:58:49.721Z,96.33
2018-04-17T07:01:20.524Z,96.59
2018-04-17T07:03:51.351Z,95.96
2018-04-17T07:06:22.132Z,94.76
2018-04-17T07:08:52.927Z,92.88
2018-04-17T07:11:23.720Z,91.42
2018-04-17T07:13:54.527Z,91.30
2018-04-17T07:16:25.311Z,90.57
2018-04-17T07:18:56.394Z,90.80
2018-04-17T07:21:27.243Z,88.86
2018-04-17T07:23:58.053Z,88.01
2018-04-17T07:26:30.037Z,86.65
2018-04-17T07:29:00.868Z,86.52
2018-04-17T07:31:31.712Z,87.61
2018-04-17T07:34:02.552Z,86.96
2018-04-17T07:36:33.361Z,86.84
2018-04-17T07:39:04.214Z,86.47
2018-04-17T07:41:35.020Z,85.00
2018-04-17T07:44:05.860Z,83.47
2018-04-17T07:46:36.707Z,81.78
2018-04-17T07:49:07.528Z,80.61
2018-04-17T07:51:38.345Z,77.99
2018-04-17T07:54:09.176Z,80.43
2018-04-17T07:56:39.963Z,82.43
2018-04-17T07:59:10.812Z,82.99
2018-04-17T08:01:41.693Z,81.52
2018-04-17T08:04:12.617Z,77.80
2018-04-17T08:06:43.497Z,76.25
2018-04-17T08:09:14.378Z,77.77
2018-04-17T08:11:45.189Z,78.27
2018-04-17T08:14:16.017Z,74.79
2018-04-17T08:16:46.799Z,75.64
2018-04-17T08:19:17.621Z,76.24
2018-04-17T08:21:48.415Z,74.68
2018-04-17T08:24:19.281Z,71.94
2018-04-17T08:26:50.144Z,71.29
2018-04-17T08:29:20.956Z,71.15
2018-04-17T08:31:51.729Z,72.94
2018-04-17T08:34:22.550Z,71.38
2018-04-17T08:36:53.371Z,71.07
2018-04-17T08:39:24.162Z,69.46
2018-04-17T08:41:54.957Z,68.75
2018-04-17T08:44:25.768Z,68.60
2018-04-17T08:46:56.604Z,66.80
2018-04-17T08:49:27.400Z,64.64
2018-04-17T08:51:58.179Z,65.60
2018-04-17T08:54:29.021Z,64.97
2018-04-17T08:56:59.824Z,64.31
2018-04-17T08:59:30.614Z,63.87
2018-04-17T09:02:01.457Z,65.06
2018-04-17T09:04:32.281Z,62.11
2018-04-17T09:07:03.073Z,59.67
2018-04-17T09:09:33.868Z,60.20
2018-04-17T09:12:04.637Z,61.51
2018-04-17T09:14:35.472Z,62.47
2018-04-17T09:17:06.271Z,63.00
2018-04-17T09:19:37.072Z,62.67
2018-04-17T09:22:07.885Z,62.20
2018-04-17T09:24:38.732Z,61.97
2018-04-17T09:27:09.514Z,61.47
2018-04-17T09:29:40.307Z,61.49
2018-04-17T09:32:11.092Z,59.93
2018-04-17T09:34:41.883Z,59.77
2018-04-17T09:37:12.727Z,59.02
2018-04-17T09:39:43.579Z,58.71
2018-04-17T09:42:14.420Z,56.64
2018-04-17T09:44:45.275Z,57.20
2018-04-17T09:47:16.061Z,53.91
2018-04-17T09:49:46.919Z,55.09
2018-04-17T09:52:17.780Z,53.30
2018-04-17T09:54:48.610Z,53.18
2018-04-17T09:57:19.537Z,53.47
2018-04-17T09:59:50.365Z,53.71
2018-04-17T10:02:21.169Z,55.21
2018-04-17T10:04:52.011Z,54.29
2018-04-17T10:07:22.806Z,54.59
2018-04-17T10:09:53.723Z,53.07
2018-04-17T10:12:24.556Z,52.53
2018-04-17T10:14:55.350Z,52.98
2018-04-17T10:17:26.162Z,52.91
2018-04-17T10:19:56.995Z,47.49
2018-04-17T10:22:27.774Z,48.03
2018-04-17T10:24:58.625Z,48.26
2018-04-17T10:27:29.428Z,46.99
2018-04-17T10:30:00.228Z,45.43
2018-04-17T10:32:31.032Z,44.11
2018-04-17T10:35:01.880Z,41.76
2018-04-17T10:37:32.662Z,44.09
2018-04-17T10:40:03.501Z,44.65
2018-04-17T10:42:34.292Z,40.58
2018-04-17T10:45:05.104Z,39.14
2018-04-17T10:47:35.885Z,38.98
2018-04-17T10:50:06.693Z,40.93
2018-04-17T10:52:37.474Z,38.91
2018-04-17T10:55:08.325Z,39.54
2018-04-17T10:57:39.100Z,40.97
2018-04-17T11:00:09.938Z,39.56
2018-04-17T11:02:40.723Z,38.30
2018-04-17T11:05:11.506Z,40.65
2018-04-17T11:07:42.321Z,39.71
2018-04-17T11:10:13.125Z,41.12
2018-04-17T11:12:43.892Z,39.88
2018-04-17T11:15:14.715Z,38.87
2018-04-17T11:17:45.488Z,38.31
2018-04-17T11:20:16.360Z,36.57
2018-04-17T11:22:47.157Z,37.90
2018-04-17T11:25:17.982Z,37.95
2018-04-17T11:27:48.772Z,35.95
2018-04-17T11:30:19.593Z,38.08
2018-04-17T11:32:50.366Z,38.46
2018-04-17T11:35:21.245Z,38.94
2018-04-17T11:37:52.023Z,37.89
2018-04-17T11:40:22.818Z,38.90
2018-04-17T11:42:53.611Z,34.69
2018-04-17T11:45:24.416Z,35.49
2018-04-17T11:47:55.229Z,33.60
2018-04-17T11:50:26.013Z,35.68
2018-04-17T11:52:56.859Z,33.89
2018-04-17T11:55:27.644Z,35.29
2018-04-17T11:57:58.427Z,35.47
2018-04-17T12:00:29.271Z,35.20
2018-04-17T12:03:00.039Z,33.44
2018-04-17T12:05:30.835Z,32.50
2018-04-17T12:08:01.659Z,31.33
2018-04-17T12:10:32.497Z,30.59
2018-04-17T12:13:03.291Z,32.60
2018-04-17T12:15:34.108Z,32.91
2018-04-17T12:18:04.896Z,29.96
2018-04-17T12:20:35.707Z,30.91
2018-04-17T12:23:06.489Z,30.21
2018-04-17T12:25:37.276Z,30.34
2018-04-17T12:28:08.055Z,30.54
2018-04-17T12:30:38.916Z,31.30
2018-04-17T12:33:09.704Z,31.11
2018-04-17T12:35:40.644Z,31.53
2018-04-17T12:38:11.440Z,32.16
2018-04-17T12:40:42.237Z,32.17
2018-04-17T12:43:13.021Z,32.57
2018-04-17T12:45:43.799Z,30.23
2018-04-17T12:48:14.565Z,29.59
2018-04-17T12:50:45.402Z,27.76
2018-04-17T12:53:16.187Z,29.02
2018-04-17T12:55:47.020Z,27.86
2018-04-17T12:58:17.796Z,28.03
2018-04-17T13:00:48.611Z,32.02
2018-04-17T13:03:19.491Z,29.61
2018-04-17T13:05:50.290Z,27.37
2018-04-17T13:08:21.189Z,25.95
2018-04-17T13:10:52.036Z,25.61
2018-04-17T13:13:22.811Z,26.43
2018-04-17T13:15:53.710Z,25.00
2018-04-17T13:18:24.512Z,25.79
2018-04-17T13:20:55.311Z,26.62
2018-04-17T13:23:26.108Z,27.06
2018-04-17T13:25:56.902Z,25.39
2018-04-17T13:28:27.705Z,25.62
2018-04-17T13:30:58.479Z,24.14
2018-04-17T13:33:29.247Z,23.75
2018-04-17T13:36:00.023Z,26.63
2018-04-17T13:38:30.836Z,25.28
2018-04-17T13:41:01.616Z,23.32
2018-04-17T13:43:32.423Z,23.79
2018-04-17T13:46:03.232Z,22.62
2018-04-17T13:48:34.079Z,22.64
2018-04-17T13:51:04.861Z,24.75
2018-04-17T13:53:35.659Z,29.19
2018-04-17T13:56:06.449Z,28.96
2018-04-17T13:58:37.284Z,27.76
2018-04-17T14:01:09.047Z,30.25
2018-04-17T14:03:39.847Z,28.81
2018-04-17T14:06:10.644Z,26.29
2018-04-17T14:08:41.464Z,23.81
2018-04-17T14:11:12.239Z,22.06
2018-04-17T14:13:43.034Z,20.45
2018-04-17T14:16:13.806Z,21.88
2018-04-17T14:18:44.653Z,22.48
2018-04-17T14:21:15.452Z,23.12
2018-04-17T14:23:46.267Z,28.66
2018-04-17T14:26:17.059Z,31.05
2018-04-17T14:28:47.852Z,32.56
2018-04-17T14:31:18.644Z,32.82
2018-04-17T14:33:49.471Z,32.80
2018-04-17T14:36:20.283Z,27.05
2018-04-17T14:38:51.147Z,26.46
2018-04-17T14:41:21.944Z,24.34
2018-04-17T14:43:52.759Z,23.15
2018-04-17T14:46:23.544Z,23.71
2018-04-17T14:48:54.360Z,22.22
2018-04-17T14:51:25.217Z,23.54
2018-04-17T14:53:56.037Z,22.91
2018-04-17T14:56:26.824Z,22.13
2018-04-17T14:58:57.627Z,22.99
2018-04-17T15:01:28.420Z,24.91
2018-04-17T15:03:59.209Z,25.36
2018-04-17T15:06:30.043Z,24.08
2018-04-17T15:09:00.859Z,24.53
2018-04-17T15:11:38.564Z,22.83
2018-04-17T15:14:09.376Z,22.16
2018-04-17T15:16:40.316Z,21.53
2018-04-17T15:19:11.192Z,22.72
2018-04-17T15:21:42.124Z,22.58
2018-04-17T15:24:13.105Z,24.11
2018-04-17T15:26:43.954Z,24.66
2018-04-17T15:29:14.783Z,23.75
2018-04-17T15:31:45.580Z,23.11
2018-04-17T15:34:16.451Z,23.68
2018-04-17T15:36:47.236Z,23.77
2018-04-17T15:39:18.080Z,24.13
2018-04-17T15:41:48.880Z,24.14
2018-04-17T15:44:19.705Z,22.82
2018-04-17T15:46:50.531Z,22.49
2018-04-17T15:49:21.448Z,24.07
2018-04-17T15:54:28.772Z,23.77
2018-04-17T15:56:59.540Z,24.28
2018-04-17T15:59:30.353Z,26.94
2018-04-17T16:02:01.143Z,27.25
2018-04-17T16:04:31.972Z,25.91
2018-04-17T16:07:02.910Z,26.87
2018-04-17T16:09:33.751Z,27.69
2018-04-17T16:12:04.508Z,29.69
2018-04-17T16:14:35.408Z,29.67
2018-04-17T16:17:06.270Z,29.71
2018-04-17T16:19:37.109Z,30.88
2018-04-17T16:22:07.908Z,31.72
2018-04-17T16:24:38.696Z,31.51
2018-04-17T16:27:09.489Z,31.02
2018-04-17T16:29:40.343Z,31.69
2018-04-17T16:32:11.145Z,31.72
2018-04-17T16:34:41.931Z,31.96
2018-04-17T16:37:12.771Z,32.73
2018-04-17T16:39:43.604Z,34.63
2018-04-17T16:42:14.470Z,32.71
2018-04-17T16:44:45.323Z,33.13
2018-04-17T16:47:16.110Z,33.19
2018-04-17T16:49:46.910Z,33.24
2018-04-17T16:52:17.699Z,35.14
2018-04-17T16:54:48.500Z,35.79
2018-04-17T16:57:19.394Z,35.96
2018-04-17T16:59:50.204Z,36.15
2018-04-17T17:02:21.025Z,35.55
2018-04-17T17:04:51.832Z,36.00
2018-04-17T17:07:22.626Z,35.64
2018-04-17T17:09:53.438Z,36.71
2018-04-17T17:12:24.229Z,36.87
2018-04-17T17:14:55.079Z,37.22
2018-04-17T17:17:25.868Z,37.10
2018-04-17T17:19:56.704Z,37.89
2018-04-17T17:22:27.543Z,37.24
2018-04-17T17:24:58.359Z,38.62
2018-04-17T17:27:29.159Z,39.60
2018-04-17T17:29:59.975Z,38.32
2018-04-17T17:32:30.827Z,39.39
2018-04-17T17:35:01.764Z,40.74
2018-04-17T17:37:32.554Z,40.80
2018-04-17T17:40:03.433Z,41.62
2018-04-17T17:42:34.236Z,41.53
2018-04-17T17:45:05.117Z,42.13
2018-04-17T17:47:35.916Z,42.88
2018-04-17T17:50:06.848Z,43.49
2018-04-17T17:52:37.744Z,44.42
2018-04-17T17:55:08.563Z,44.56
2018-04-17T17:57:39.396Z,45.68
2018-04-17T18:00:10.225Z,47.00
2018-04-17T18:02:41.139Z,46.84
2018-04-17T18:05:11.962Z,46.71
2018-04-17T18:07:42.759Z,48.37
2018-04-17T18:10:13.687Z,48.54
2018-04-17T18:12:44.479Z,49.57
2018-04-17T18:15:15.426Z,50.12
2018-04-17T18:17:46.205Z,51.04
2018-04-17T18:20:17.016Z,51.72
2018-04-17T18:22:47.801Z,50.95
2018-04-17T18:25:18.676Z,51.70
2018-04-17T18:27:49.495Z,51.06
2018-04-17T18:30:20.363Z,52.12
2018-04-17T18:32:51.145Z,52.16
2018-04-17T18:35:22.208Z,53.99
2018-04-17T18:37:53.072Z,54.39
2018-04-17T18:40:23.912Z,54.26
2018-04-17T18:42:54.721Z,54.96
2018-04-17T18:45:25.523Z,55.89
2018-04-17T18:47:56.460Z,56.00
2018-04-17T18:50:27.331Z,54.45
2018-04-17T18:52:58.192Z,54.78
2018-04-17T18:55:29.012Z,55.96
2018-04-17T18:57:59.932Z,57.72
2018-04-17T19:00:30.879Z,57.92
2018-04-17T19:03:01.686Z,57.40
2018-04-17T19:05:32.554Z,58.78
2018-04-17T19:08:03.337Z,59.81
2018-04-17T19:10:34.207Z,60.78
2018-04-17T19:13:05.004Z,61.56
2018-04-17T19:15:35.849Z,61.83
2018-04-17T19:18:06.629Z,62.73
2018-04-17T19:20:37.463Z,63.20
2018-04-17T19:23:08.252Z,64.28
2018-04-17T19:25:39.101Z,63.74
2018-04-17T19:28:09.898Z,63.80
2018-04-17T19:30:40.751Z,64.88
2018-04-17T19:33:11.548Z,65.36
2018-04-17T19:35:42.348Z,66.01
2018-04-17T19:38:13.137Z,66.95
2018-04-17T19:40:44.008Z,66.53
2018-04-17T19:43:14.863Z,67.02
2018-04-17T19:45:45.675Z,67.12
2018-04-17T19:48:16.475Z,67.49
2018-04-17T19:50:47.340Z,67.24
2018-04-17T19:53:18.155Z,67.19
2018-04-17T19:55:49.011Z,67.23
2018-04-17T19:58:19.855Z,67.23
2018-04-17T20:00:50.943Z,66.58
2018-04-17T20:03:21.872Z,66.45
2018-04-17T20:05:52.695Z,65.83
2018-04-17T20:08:24.452Z,66.36
2018-04-17T20:10:55.344Z,67.20
2018-04-17T20:13:26.146Z,68.21
2018-04-17T20:15:57.055Z,69.05
2018-04-17T20:18:27.924Z,69.94
2018-04-17T20:20:58.900Z,71.41
2018-04-17T20:23:29.723Z,71.79
2018-04-17T20:26:00.685Z,72.39
2018-04-17T20:28:31.565Z,72.99
2018-04-17T20:31:02.427Z,73.64
2018-04-17T20:33:33.343Z,73.03
2018-04-17T20:36:04.176Z,72.68
2018-04-17T20:38:34.985Z,73.24
2018-04-17T20:41:05.802Z,73.87
2018-04-17T20:43:36.850Z,74.26
2018-04-17T20:46:07.742Z,73.78
2018-04-17T20:48:38.563Z,73.69
2018-04-17T20:51:09.402Z,74.46
2018-04-17T20:53:40.255Z,74.46
2018-04-17T20:56:11.129Z,74.87
2018-04-17T20:58:41.955Z,74.84
2018-04-17T21:01:12.871Z,74.43
2018-04-17T21:03:43.714Z,74.25
2018-04-17T21:06:14.549Z,74.29
2018-04-17T21:08:45.404Z,73.67
2018-04-17T21:11:16.268Z,74.41
2018-04-17T21:13:47.263Z,74.93
2018-04-17T21:16:18.157Z,75.57
2018-04-17T21:18:48.974Z,76.50
2018-04-17T21:21:19.834Z,77.23
2018-04-17T21:23:50.616Z,77.65
2018-04-17T21:26:21.411Z,77.50
2018-04-17T21:28:52.216Z,77.77
2018-04-17T21:31:23.032Z,78.02
2018-04-17T21:33:53.860Z,78.59
2018-04-17T21:36:24.687Z,78.33
2018-04-17T21:38:55.529Z,78.17
2018-04-17T21:41:26.360Z,77.90
2018-04-17T21:43:57.161Z,77.61
2018-04-17T21:46:27.956Z,78.18
2018-04-17T21:48:58.808Z,78.70
2018-04-17T21:51:29.631Z,79.36
2018-04-17T21:54:00.456Z,80.28
2018-04-17T21:56:31.494Z,81.09
2018-04-17T21:59:02.405Z,81.33
2018-04-17T22:01:33.292Z,81.61
2018-04-17T22:04:04.135Z,82.16
2018-04-17T22:06:35.045Z,82.59
2018-04-17T22:09:05.912Z,81.91
2018-04-17T22:11:36.787Z,81.39
2018-04-17T22:14:07.671Z,82.67
2018-04-17T22:16:38.597Z,82.92
2018-04-17T22:19:09.456Z,83.03
2018-04-17T22:21:40.340Z,83.47
2018-04-17T22:24:11.205Z,83.75
2018-04-17T22:26:42.088Z,83.94
2018-04-17T22:29:12.951Z,83.99
2018-04-17T22:31:43.798Z,84.00
2018-04-17T22:34:14.693Z,84.62
2018-04-17T22:36:45.552Z,85.42
2018-04-17T22:39:16.385Z,85.48
2018-04-17T22:41:47.332Z,84.99
2018-04-17T22:44:18.149Z,84.81
2018-04-17T22:46:49.011Z,84.97
2018-04-17T22:49:19.839Z,85.20
2018-04-17T22:51:50.729Z,84.67
2018-04-17T22:54:21.580Z,84.88
2018-04-17T22:56:52.427Z,85.40
2018-04-17T22:59:23.291Z,85.94
2018-04-17T23:01:54.130Z,86.13
2018-04-17T23:04:24.952Z,86.52
2018-04-17T23:06:55.947Z,86.84
2018-04-17T23:09:26.808Z,86.42
2018-04-17T23:11:57.662Z,86.57
2018-04-17T23:14:28.473Z,86.91
2018-04-17T23:16:59.319Z,86.91
2018-04-17T23:19:30.160Z,87.02
2018-04-17T23:22:01.216Z,87.33
2018-04-17T23:24:32.049Z,87.62
2018-04-17T23:27:02.879Z,88.12
2018-04-17T23:29:33.652Z,88.45
2018-04-17T23:32:04.481Z,88.48
2018-04-17T23:34:35.308Z,89.02
2018-04-17T23:37:06.127Z,89.39
2018-04-17T23:39:36.932Z,89.91
2018-04-17T23:42:07.726Z,90.03
2018-04-17T23:44:38.505Z,90.22
2018-04-17T23:47:09.328Z,90.17
2018-04-17T23:49:40.125Z,90.14
2018-04-17T23:52:10.936Z,90.42
2018-04-17T23:54:41.772Z,90.88
2018-04-17T23:57:12.583Z,91.37
2018-04-17T23:59:43.431Z,91.50
